Time;durP1;ratioP1;P1;durP2;ratioP2;P2;SDS_P1;SDS_P2;PMS_P1;PMS_P2;Temp;Humidity;BMP_temperature;BMP_pressure;BME280_temperature;BME280_humidity;BME280_pressure;Samples;Min_cycle;Max_cycle;Signal;HPM_P1;HPM_P2
2022/05/03 00:07:37;;;;;;;13.93;11.10;;;;;;;11.39;100.00;100243.88;21022936;28;20390;-67
2022/05/03 00:17:41;;;;;;;15.15;11.25;;;;;;;11.18;100.00;100233.88;21033310;28;20086;-67
2022/05/03 00:27:43;;;;;;;16.95;11.55;;;;;;;11.01;100.00;100236.81;21035072;28;20130;-67
2022/05/03 00:37:44;;;;;;;14.25;10.68;;;;;;;10.77;100.00;100232.91;21032610;28;20045;-68
2022/05/03 00:47:53;;;;;;;16.08;11.63;;;;;;;10.77;100.00;100231.16;21032559;28;20468;-67
2022/05/03 00:58:09;;;;;;;17.55;11.95;;;;;;;10.69;100.00;100230.47;21031589;28;20246;-67
2022/05/03 01:08:29;;;;;;;19.70;11.90;;;;;;;10.68;100.00;100222.63;21030401;28;20055;-69
2022/05/03 01:18:37;;;;;;;17.23;12.40;;;;;;;10.55;100.00;100214.16;21028050;28;20097;-67
2022/05/03 01:29:31;;;;;;;15.73;12.32;;;;;;;10.38;100.00;100217.06;21030193;28;20105;-67
2022/05/03 01:39:44;;;;;;;15.90;12.07;;;;;;;10.23;100.00;100219.91;20993164;28;20135;-67
2022/05/03 01:50:19;;;;;;;16.67;12.40;;;;;;;10.15;100.00;100211.31;21025231;28;20052;-67
2022/05/03 02:00:22;;;;;;;17.90;12.93;;;;;;;10.00;100.00;100223.78;21029155;28;20109;-66
2022/05/03 02:11:02;;;;;;;16.55;13.07;;;;;;;9.88;100.00;100221.38;21022420;28;20489;-67
2022/05/03 02:21:20;;;;;;;18.30;13.93;;;;;;;9.66;100.00;100223.44;21014840;28;20048;-67
2022/05/03 02:31:42;;;;;;;16.90;13.27;;;;;;;9.54;100.00;100218.41;21022682;28;20058;-67
2022/05/03 02:41:46;;;;;;;18.42;14.57;;;;;;;9.41;100.00;100207.25;21024826;28;20091;-67
2022/05/03 02:52:03;;;;;;;22.57;14.47;;;;;;;9.40;100.00;100209.91;21023581;28;20110;-67
2022/05/03 03:02:14;;;;;;;19.83;14.25;;;;;;;9.34;100.00;100226.53;21020696;28;20058;-67
2022/05/03 03:12:39;;;;;;;19.75;14.95;;;;;;;9.21;100.00;100228.44;21021684;28;20151;-67
2022/05/03 03:22:43;;;;;;;20.10;14.43;;;;;;;9.17;100.00;100226.72;21023308;28;20117;-67
2022/05/03 03:32:47;;;;;;;22.23;16.07;;;;;;;8.99;100.00;100222.59;21022986;28;20052;-67
2022/05/03 03:42:49;;;;;;;21.23;15.60;;;;;;;9.12;100.00;100227.69;21026808;28;20078;-67
2022/05/03 03:52:52;;;;;;;22.50;16.45;;;;;;;9.23;100.00;100213.59;21038936;28;20046;-67
2022/05/03 04:02:54;;;;;;;24.67;16.48;;;;;;;9.28;100.00;100230.94;21037283;28;20050;-67
2022/05/03 04:12:57;;;;;;;19.65;15.38;;;;;;;9.42;100.00;100236.84;21031771;28;20435;-67
2022/05/03 04:22:59;;;;;;;17.98;14.32;;;;;;;9.57;100.00;100233.16;21034641;28;20417;-67
2022/05/03 04:33:00;;;;;;;19.42;14.80;;;;;;;9.67;100.00;100234.75;21033319;28;20098;-67
2022/05/03 04:43:02;;;;;;;20.33;15.55;;;;;;;9.90;100.00;100248.34;21033703;28;20119;-67
2022/05/03 04:53:03;;;;;;;21.50;14.38;;;;;;;10.24;100.00;100253.94;21034501;28;20094;-67
2022/05/03 05:03:05;;;;;;;27.67;20.02;;;;;;;10.37;100.00;100248.50;21031893;28;20044;-67
2022/05/03 05:13:06;;;;;;;27.15;19.25;;;;;;;10.41;100.00;100256.28;21031411;28;20056;-67
2022/05/03 05:23:10;;;;;;;27.17;21.23;;;;;;;10.46;100.00;100259.69;21030874;28;20040;-67
2022/05/03 05:33:22;;;;;;;27.25;21.30;;;;;;;10.74;100.00;100272.28;21030192;28;20097;-67
2022/05/03 05:43:24;;;;;;;33.55;21.65;;;;;;;11.14;100.00;100274.13;21029623;28;20067;-67
2022/05/03 05:53:31;;;;;;;30.27;20.20;;;;;;;11.53;100.00;100275.91;21028428;28;20078;-67
2022/05/03 06:03:34;;;;;;;22.15;17.52;;;;;;;11.82;100.00;100275.28;21022839;28;20488;-67
2022/05/03 06:13:35;;;;;;;27.13;19.30;;;;;;;11.96;100.00;100280.22;21026715;28;20078;-67
2022/05/03 06:23:38;;;;;;;25.52;18.42;;;;;;;12.15;100.00;100279.78;21027067;28;20049;-67
2022/05/03 06:33:39;;;;;;;25.80;19.58;;;;;;;12.23;99.26;100283.97;21024185;28;20044;-67
2022/05/03 06:43:45;;;;;;;22.35;18.08;;;;;;;12.72;96.39;100284.47;21025433;28;20048;-67
2022/05/03 06:53:47;;;;;;;25.75;18.73;;;;;;;13.02;93.64;100299.41;21025517;28;20501;-67
2022/05/03 07:03:48;;;;;;;32.65;18.90;;;;;;;13.21;94.22;100301.53;21014118;28;20048;-67
2022/05/03 07:13:50;;;;;;;25.55;17.23;;;;;;;13.77;90.53;100306.97;21018507;28;20048;-68
2022/05/03 07:23:54;;;;;;;25.13;16.73;;;;;;;14.23;86.91;100308.13;21034205;28;20048;-68
2022/05/03 07:33:55;;;;;;;22.02;16.33;;;;;;;14.19;88.31;100301.28;21031467;28;20048;-69
2022/05/03 07:43:57;;;;;;;22.42;17.17;;;;;;;14.45;88.13;100303.91;21029532;28;20063;-69
2022/05/03 07:53:58;;;;;;;20.08;16.25;;;;;;;14.83;85.78;100293.88;21029163;28;20106;-69
2022/05/03 08:04:00;;;;;;;19.65;14.38;;;;;;;14.98;84.33;100298.59;21027335;28;20097;-69
2022/05/03 08:14:01;;;;;;;20.80;13.70;;;;;;;15.33;83.50;100299.97;21032241;28;20113;-70
2022/05/03 08:24:03;;;;;;;19.70;14.85;;;;;;;15.24;83.18;100315.28;21028380;28;20048;-69
2022/05/03 08:34:05;;;;;;;22.08;16.23;;;;;;;15.56;81.40;100312.28;21026214;28;20098;-69
2022/05/03 08:44:07;;;;;;;20.10;14.65;;;;;;;16.35;76.91;100310.13;21026094;28;20048;-69
2022/05/03 08:54:09;;;;;;;17.10;13.82;;;;;;;16.42;76.88;100320.38;21025277;28;20412;-71
2022/05/03 09:04:11;;;;;;;18.15;12.68;;;;;;;16.88;73.02;100307.03;21024264;28;20052;-70
2022/05/03 09:14:36;;;;;;;14.20;10.60;;;;;;;18.02;66.77;100314.22;21019948;28;20048;-68
2022/05/03 09:24:52;;;;;;;13.63;9.30;;;;;;;18.24;61.68;100323.78;21022422;28;20458;-69
2022/05/03 09:34:53;;;;;;;13.57;11.27;;;;;;;18.07;61.03;100314.88;21022946;28;20044;-68
2022/05/03 09:45:02;;;;;;;15.30;10.70;;;;;;;18.59;62.59;100304.34;21022821;28;20052;-70
2022/05/03 09:55:07;;;;;;;12.18;9.02;;;;;;;19.18;61.01;100312.84;21021874;28;20440;-69
2022/05/03 10:05:10;;;;;;;15.60;12.27;;;;;;;19.02;60.47;100302.19;21019810;28;20051;-69
2022/05/03 10:20:35;;;;;;;18.85;12.35;;;;;;;18.89;60.46;100295.78;21019929;28;20040;-69
2022/05/03 10:25:41;;;;;;;8.82;6.72;;;;;;;19.42;56.30;100281.47;21018827;28;20048;-70
2022/05/03 10:35:43;;;;;;;8.90;6.22;;;;;;;19.76;56.38;100277.00;21017669;28;20423;-70
2022/05/03 10:45:49;;;;;;;11.23;7.43;;;;;;;19.62;55.04;100270.63;21018658;28;20101;-69
2022/05/03 10:56:16;;;;;;;11.00;8.00;;;;;;;19.54;56.27;100251.56;21014545;28;20037;-69
2022/05/03 11:06:25;;;;;;;9.75;6.95;;;;;;;19.88;57.57;100239.97;21013840;28;20044;-68
2022/05/03 11:16:27;;;;;;;15.10;8.68;;;;;;;19.63;58.59;100219.22;21015512;28;20509;-68
2022/05/03 11:26:29;;;;;;;10.82;7.15;;;;;;;19.91;56.15;100210.56;21016846;28;20048;-68
2022/05/03 11:36:31;;;;;;;11.32;7.10;;;;;;;19.94;52.53;100204.22;21016714;28;20449;-68
2022/05/03 11:46:33;;;;;;;10.18;8.00;;;;;;;20.40;53.67;100199.69;21019473;28;20468;-68
2022/05/03 11:56:35;;;;;;;7.80;5.80;;;;;;;19.99;50.04;100199.50;21019309;28;20459;-68
2022/05/03 12:06:45;;;;;;;10.25;5.63;;;;;;;20.45;47.36;100191.44;21022104;28;20051;-69
2022/05/03 12:16:49;;;;;;;11.43;7.15;;;;;;;20.62;49.34;100178.03;21025978;28;20056;-69
2022/05/03 12:26:51;;;;;;;11.70;7.63;;;;;;;20.79;47.09;100173.47;21026022;28;20048;-69
2022/05/03 12:37:02;;;;;;;10.25;6.57;;;;;;;20.81;47.43;100167.13;21026081;28;20405;-69
2022/05/03 12:47:09;;;;;;;11.18;5.85;;;;;;;20.90;43.42;100158.56;21022381;28;20048;-67
2022/05/03 13:07:32;;;;;;;8.35;5.40;;;;;;;21.18;42.36;100139.03;21021783;28;20048;-67
2022/05/03 13:17:33;;;;;;;7.50;4.72;;;;;;;21.12;43.16;100128.75;21020223;28;20515;-67
2022/05/03 13:27:35;;;;;;;7.55;4.80;;;;;;;21.31;43.86;100138.28;21017996;28;20051;-67
2022/05/03 13:47:57;;;;;;;8.85;5.75;;;;;;;20.79;42.95;100129.09;21018449;28;20052;-68
2022/05/03 13:57:58;;;;;;;8.95;6.10;;;;;;;21.35;42.13;100123.81;21016494;28;20538;-68
2022/05/03 14:08:00;;;;;;;7.50;4.50;;;;;;;21.59;38.00;100111.56;21010654;28;20040;-68
2022/05/03 14:18:03;;;;;;;5.60;3.70;;;;;;;21.84;41.13;100104.59;21015281;28;20063;-68
2022/05/03 14:28:05;;;;;;;6.43;3.40;;;;;;;21.60;36.41;100091.94;21012524;28;20056;-68
2022/05/03 14:38:07;;;;;;;6.05;3.92;;;;;;;22.06;36.64;100083.53;21013919;28;20059;-68
2022/05/03 14:48:09;;;;;;;6.18;4.35;;;;;;;21.94;38.75;100085.22;21014579;28;20044;-68
2022/05/03 15:08:30;;;;;;;6.55;4.03;;;;;;;21.42;38.24;100067.41;20975807;28;1053444;-68
2022/05/03 15:18:32;;;;;;;5.53;3.90;;;;;;;21.62;38.17;100063.41;21016193;28;20146;-67
2022/05/03 15:28:33;;;;;;;6.82;4.15;;;;;;;21.77;40.14;100065.03;21016146;28;20489;-68
2022/05/03 15:38:35;;;;;;;6.72;4.45;;;;;;;21.41;44.83;100065.66;21017848;28;20106;-68
2022/05/03 15:48:36;;;;;;;8.18;4.38;;;;;;;21.18;45.90;100075.16;21031244;28;20101;-67
2022/05/03 15:58:39;;;;;;;21.75;7.30;;;;;;;19.87;78.98;100155.00;21029596;28;20047;-70
2022/05/03 16:08:42;;;;;;;11.10;5.72;;;;;;;17.87;88.24;100145.41;21025140;28;20053;-68
2022/05/03 16:18:44;;;;;;;11.43;6.37;;;;;;;17.37;93.48;100151.38;21030034;28;20461;-68
2022/05/03 16:28:47;;;;;;;9.88;5.90;;;;;;;17.25;92.78;100141.34;21029716;28;20117;-69
2022/05/03 16:49:10;;;;;;;11.00;6.43;;;;;;;17.00;97.26;100176.88;21023689;28;20059;-69
2022/05/03 16:59:13;;;;;;;10.15;7.63;;;;;;;17.01;99.61;100189.22;21025650;28;20044;-68
2022/05/03 17:09:15;;;;;;;10.20;7.03;;;;;;;16.94;99.68;100182.47;21023881;28;20060;-68
2022/05/03 17:19:17;;;;;;;8.60;6.68;;;;;;;17.01;99.82;100185.69;21016558;28;20483;-68
2022/05/03 17:29:19;;;;;;;10.48;7.18;;;;;;;16.76;99.71;100191.22;21022950;28;20056;-67
2022/05/03 17:39:21;;;;;;;10.40;6.95;;;;;;;16.51;100.00;100200.19;21022068;28;20438;-68
2022/05/03 17:49:34;;;;;;;13.32;7.90;;;;;;;16.27;100.00;100209.19;21021617;28;20428;-68
2022/05/03 17:59:36;;;;;;;12.25;7.68;;;;;;;16.15;100.00;100229.91;21020833;28;20465;-69
2022/05/03 18:09:37;;;;;;;12.00;7.43;;;;;;;16.04;100.00;100249.75;21019447;28;20135;-69
2022/05/03 18:19:39;;;;;;;11.85;7.43;;;;;;;15.72;100.00;100254.53;21019274;28;20137;-68
2022/05/03 18:29:41;;;;;;;11.98;7.95;;;;;;;15.47;100.00;100253.72;21017771;28;20047;-68
2022/05/03 18:39:43;;;;;;;9.38;6.18;;;;;;;15.09;100.00;100238.44;21016875;28;20052;-68
2022/05/03 18:49:45;;;;;;;13.85;6.80;;;;;;;15.10;100.00;100255.13;21016646;28;20054;-70
2022/05/03 18:59:47;;;;;;;9.68;6.28;;;;;;;15.20;100.00;100258.28;21020192;28;20540;-69
2022/05/03 19:09:49;;;;;;;13.02;9.50;;;;;;;15.27;100.00;100263.25;21014661;28;20102;-69
2022/05/03 19:19:51;;;;;;;17.70;8.25;;;;;;;14.70;100.00;100277.59;21031285;28;20484;-70
2022/05/03 19:40:13;;;;;;;11.25;8.20;;;;;;;14.63;100.00;100286.66;21031037;28;20056;-70
2022/05/03 19:50:17;;;;;;;12.73;7.60;;;;;;;14.50;100.00;100280.94;21028963;28;20066;-69
2022/05/03 20:00:18;;;;;;;10.38;7.78;;;;;;;14.44;100.00;100291.66;21029870;28;20463;-69
2022/05/03 20:10:23;;;;;;;10.20;8.00;;;;;;;14.37;100.00;100295.38;21029749;28;20121;-69
2022/05/03 20:20:24;;;;;;;15.02;8.60;;;;;;;14.36;100.00;100307.69;21028825;28;20048;-69
2022/05/03 20:30:26;;;;;;;17.13;9.95;;;;;;;14.40;100.00;100323.41;21026541;28;20450;-69
2022/05/03 20:40:27;;;;;;;15.63;11.32;;;;;;;14.40;100.00;100328.69;21026273;28;20101;-69
2022/05/03 20:50:29;;;;;;;14.95;11.35;;;;;;;14.28;100.00;100335.22;21024180;28;20060;-68
2022/05/03 21:00:31;;;;;;;13.93;11.45;;;;;;;14.13;100.00;100349.69;21024481;28;20045;-68
2022/05/03 21:10:33;;;;;;;17.77;12.35;;;;;;;14.00;100.00;100338.69;21020583;28;20040;-68
2022/05/03 21:20:34;;;;;;;14.98;11.02;;;;;;;13.95;100.00;100340.63;21023467;28;20252;-68
2022/05/03 21:30:36;;;;;;;17.05;12.70;;;;;;;13.95;100.00;100339.75;21021878;28;20056;-69
2022/05/03 21:40:37;;;;;;;16.67;12.70;;;;;;;13.56;100.00;100330.38;21024441;28;20048;-68
2022/05/03 21:50:39;;;;;;;16.08;11.60;;;;;;;13.52;100.00;100335.75;21019918;28;20056;-69
2022/05/03 22:00:49;;;;;;;21.60;12.95;;;;;;;13.29;100.00;100342.53;21019879;28;20405;-69
2022/05/03 22:10:50;;;;;;;17.95;13.30;;;;;;;13.05;100.00;100351.06;21025240;28;20056;-69
2022/05/03 22:20:52;;;;;;;24.02;13.02;;;;;;;13.01;100.00;100354.66;21028147;28;20400;-69
2022/05/03 22:30:54;;;;;;;15.43;11.48;;;;;;;12.94;100.00;100353.97;21026442;28;20058;-69
2022/05/03 22:40:55;;;;;;;15.25;12.43;;;;;;;12.94;100.00;100367.13;21026349;28;20090;-69
2022/05/03 22:50:57;;;;;;;17.80;12.27;;;;;;;12.89;100.00;100360.22;21019607;28;20060;-69
2022/05/03 23:00:58;;;;;;;19.27;12.63;;;;;;;12.87;100.00;100365.53;21023275;28;20404;-69
2022/05/03 23:11:00;;;;;;;16.45;12.63;;;;;;;12.77;100.00;100364.91;21023621;28;20534;-70
2022/05/03 23:21:01;;;;;;;18.20;13.73;;;;;;;12.62;100.00;100362.66;21023921;28;20040;-70
2022/05/03 23:31:03;;;;;;;17.55;13.65;;;;;;;12.64;100.00;100360.84;21018745;28;20143;-70
2022/05/03 23:41:05;;;;;;;19.73;14.68;;;;;;;12.57;100.00;100369.78;21021863;28;20052;-70
2022/05/03 23:51:07;;;;;;;15.70;12.98;;;;;;;12.38;100.00;100374.63;21022267;28;20467;-70
